Celebrity Century — 9HJI9 — position and weather

sailwx.info

Track history (hours):
 
Tides and Currents Weather Stations Pressure Air Temp Water Temp Dewpoint Dewpoint Depression Visibility Wind Speed Wind Dir Waves Ship Positions

Celebrity Century

Last reported at 2015-Aug-28 13:15 UTC. Time now 2015-Aug-29 00:25 UTC.
Position N 31°09' E 122°42'.

Length 245 m; draft 7.9 m.

Type: Ship. MMSI: 249054000.

Date/timePositionNaut miles runAvg speedWind from/ knotsBaromVisibWave heightAir tempDewpointWater temp
2015-Aug-28 13:15N 31°09' E 122°42'1115.4
2015-Aug-28 12:33N 31°05' E 122°30'1111.3
2015-Aug-28 11:33N 31°07' E 122°17'1312.6
2015-Aug-28 10:34N 31°14' E 122°05'1313.4
2015-Aug-28 09:33N 31°17' E 121°50'1312.5
2015-Aug-28 08:34N 31°22' E 121°37'6 1.0
2015-Aug-28 02:18N 31°25' E 121°30'0 0.0
2015-Aug-28 00:33N 31°25' E 121°30'0 0.1
2015-Aug-27 23:34N 31°25' E 121°30'4 3.7
2015-Aug-27 22:33N 31°24' E 121°34'1211.4
2015-Aug-27 21:31N 31°18' E 121°47'42413.3
2015-Aug-26 13:33N 33°36' E 129°41'1313.5
2015-Aug-26 12:33N 33°39' E 129°57'1414.1
2015-Aug-26 11:32N 33°44' E 130°13'1211.7
2015-Aug-26 10:33N 33°37' E 130°24'0 0.0
2015-Aug-26 07:30N 33°37' E 130°24'0 0.0
2015-Aug-26 06:32N 33°37' E 130°24'0 0.0
2015-Aug-26 05:32N 33°37' E 130°24'0 0.0
2015-Aug-26 04:33N 33°37' E 130°24'0 0.0
2015-Aug-26 03:33N 33°37' E 130°24'0 0.0
2015-Aug-26 02:32N 33°37' E 130°24'0 0.0
2015-Aug-26 01:32N 33°37' E 130°24'0 0.0
2015-Aug-26 00:33N 33°37' E 130°24'7 6.9
2015-Aug-25 23:33N 33°40' E 130°17'1211.6
2015-Aug-25 22:33N 33°42' E 130°03'1918.5
2015-Aug-25 21:29N 33°37' E 129°40'39112.2
2015-Aug-24 13:33N 31°05' E 122°34'1514.6
2015-Aug-24 12:33N 31°07' E 122°17'1211.7
2015-Aug-24 11:33N 31°14' E 122°06'1413.6
2015-Aug-24 10:33N 31°17' E 121°50'1312.5
2015-Aug-24 09:33N 31°22' E 121°37'6 6.0
2015-Aug-24 08:29N 31°25' E 121°30'0 0.0
2015-Aug-24 07:33N 31°25' E 121°30'0 0.0
2015-Aug-24 00:32N 31°25' E 121°30'0 0.0
2015-Aug-23 23:32N 31°25' E 121°30'0 0.0
2015-Aug-23 22:33N 31°25' E 121°30'6 5.8
2015-Aug-23 21:33N 31°23' E 121°36'1010.4
2015-Aug-23 20:33N 31°18' E 121°47'1312.9
2015-Aug-23 19:33N 31°15' E 122°02'1111.3
2015-Aug-23 18:33N 31°09' E 122°13'1110.6
2015-Aug-23 17:33N 31°06' E 122°25'  
2015-Aug-20 12:33N 31°05' E 122°35'1312.8
2015-Aug-20 11:33N 31°06' E 122°21'1514.7
2015-Aug-20 10:33N 31°13' E 122°06'1514.8
2015-Aug-20 09:33N 31°17' E 121°49'1312.9
2015-Aug-20 08:34N 31°23' E 121°36'5 5.2
2015-Aug-20 07:34N 31°25' E 121°30'0 0.0
2015-Aug-20 06:34N 31°25' E 121°30'0 0.0
2015-Aug-20 05:29N 31°25' E 121°30'0 0.0
2015-Aug-20 03:23N 31°25' E 121°30'0 0.0
2015-Aug-20 02:29N 31°25' E 121°30'0 0.0
2015-Aug-20 01:29N 31°25' E 121°30'0 0.0
2015-Aug-20 00:29N 31°25' E 121°30'0 0.1
2015-Aug-19 23:28N 31°25' E 121°30'0 0.1
2015-Aug-19 22:29N 31°25' E 121°30'6 6.1
2015-Aug-19 21:34N 31°23' E 121°36'1110.6
2015-Aug-19 20:34N 31°18' E 121°47'1212.3
2015-Aug-19 19:34N 31°15' E 122°01'1312.7
2015-Aug-19 18:33N 31°09' E 122°14'1110.8
2015-Aug-19 17:33N 31°07' E 122°27'1312.9
2015-Aug-19 16:33N 31°07' E 122°42'1211.6
2015-Aug-19 15:34N 31°11' E 122°54'1010.0
2015-Aug-19 14:32N 31°15' E 123°05'1010.6
2015-Aug-19 13:33N 31°19' E 123°17'1312.5
2015-Aug-19 12:31N 31°24' E 123°31'2913.2
2015-Aug-19 10:17N 31°33' E 124°03'  
Track history (hours):
 
Tides and Currents Weather Stations Pressure Air Temp Water Temp Dewpoint Dewpoint Depression Visibility Wind Speed Wind Dir Waves Ship Positions

Celebrity Century

Last reported at 2015-Aug-28 13:15 UTC. Time now 2015-Aug-29 00:25 UTC.
Position N 31°09' E 122°42'.

Length 245 m; draft 7.9 m.

Type: Ship. MMSI: 249054000.

Date/timePositionNaut miles runAvg speedWind from/ knotsBaromVisibWave heightAir tempDewpointWater temp
2015-Aug-28 13:15N 31°09' E 122°42'1115.4
2015-Aug-28 12:33N 31°05' E 122°30'1111.3
2015-Aug-28 11:33N 31°07' E 122°17'1312.6
2015-Aug-28 10:34N 31°14' E 122°05'1313.4
2015-Aug-28 09:33N 31°17' E 121°50'1312.5
2015-Aug-28 08:34N 31°22' E 121°37'6 1.0
2015-Aug-28 02:18N 31°25' E 121°30'0 0.0
2015-Aug-28 00:33N 31°25' E 121°30'0 0.1
2015-Aug-27 23:34N 31°25' E 121°30'4 3.7
2015-Aug-27 22:33N 31°24' E 121°34'1211.4
2015-Aug-27 21:31N 31°18' E 121°47'42413.3
2015-Aug-26 13:33N 33°36' E 129°41'1313.5
2015-Aug-26 12:33N 33°39' E 129°57'1414.1
2015-Aug-26 11:32N 33°44' E 130°13'1211.7
2015-Aug-26 10:33N 33°37' E 130°24'0 0.0
2015-Aug-26 07:30N 33°37' E 130°24'0 0.0
2015-Aug-26 06:32N 33°37' E 130°24'0 0.0
2015-Aug-26 05:32N 33°37' E 130°24'0 0.0
2015-Aug-26 04:33N 33°37' E 130°24'0 0.0
2015-Aug-26 03:33N 33°37' E 130°24'0 0.0
2015-Aug-26 02:32N 33°37' E 130°24'0 0.0
2015-Aug-26 01:32N 33°37' E 130°24'0 0.0
2015-Aug-26 00:33N 33°37' E 130°24'7 6.9
2015-Aug-25 23:33N 33°40' E 130°17'1211.6
2015-Aug-25 22:33N 33°42' E 130°03'1918.5
2015-Aug-25 21:29N 33°37' E 129°40'39112.2
2015-Aug-24 13:33N 31°05' E 122°34'1514.6
2015-Aug-24 12:33N 31°07' E 122°17'1211.7
2015-Aug-24 11:33N 31°14' E 122°06'1413.6
2015-Aug-24 10:33N 31°17' E 121°50'1312.5
2015-Aug-24 09:33N 31°22' E 121°37'6 6.0
2015-Aug-24 08:29N 31°25' E 121°30'0 0.0
2015-Aug-24 07:33N 31°25' E 121°30'0 0.0
2015-Aug-24 00:32N 31°25' E 121°30'0 0.0
2015-Aug-23 23:32N 31°25' E 121°30'0 0.0
2015-Aug-23 22:33N 31°25' E 121°30'6 5.8
2015-Aug-23 21:33N 31°23' E 121°36'1010.4
2015-Aug-23 20:33N 31°18' E 121°47'1312.9
2015-Aug-23 19:33N 31°15' E 122°02'1111.3
2015-Aug-23 18:33N 31°09' E 122°13'1110.6
2015-Aug-23 17:33N 31°06' E 122°25'  
2015-Aug-20 12:33N 31°05' E 122°35'1312.8
2015-Aug-20 11:33N 31°06' E 122°21'1514.7
2015-Aug-20 10:33N 31°13' E 122°06'1514.8
2015-Aug-20 09:33N 31°17' E 121°49'1312.9
2015-Aug-20 08:34N 31°23' E 121°36'5 5.2
2015-Aug-20 07:34N 31°25' E 121°30'0 0.0
2015-Aug-20 06:34N 31°25' E 121°30'0 0.0
2015-Aug-20 05:29N 31°25' E 121°30'0 0.0
2015-Aug-20 03:23N 31°25' E 121°30'0 0.0
2015-Aug-20 02:29N 31°25' E 121°30'0 0.0
2015-Aug-20 01:29N 31°25' E 121°30'0 0.0
2015-Aug-20 00:29N 31°25' E 121°30'0 0.1
2015-Aug-19 23:28N 31°25' E 121°30'0 0.1
2015-Aug-19 22:29N 31°25' E 121°30'6 6.1
2015-Aug-19 21:34N 31°23' E 121°36'1110.6
2015-Aug-19 20:34N 31°18' E 121°47'1212.3
2015-Aug-19 19:34N 31°15' E 122°01'1312.7
2015-Aug-19 18:33N 31°09' E 122°14'1110.8
2015-Aug-19 17:33N 31°07' E 122°27'1312.9
2015-Aug-19 16:33N 31°07' E 122°42'1211.6
2015-Aug-19 15:34N 31°11' E 122°54'1010.0
2015-Aug-19 14:32N 31°15' E 123°05'1010.6
2015-Aug-19 13:33N 31°19' E 123°17'1312.5
2015-Aug-19 12:31N 31°24' E 123°31'2913.2
2015-Aug-19 10:17N 31°33' E 124°03'  

Dump ship's entire track history